sensor_id;sensor_type;location;lat;lon;timestamp;temperature;humidity
3055;DHT22;1537;52.018;8.542;2023-05-29T00:02:06;12.10;99.90
3055;DHT22;1537;52.018;8.542;2023-05-29T00:05:30;12.00;99.90
3055;DHT22;1537;52.018;8.542;2023-05-29T00:08:56;12.00;99.90
3055;DHT22;1537;52.018;8.542;2023-05-29T00:12:20;11.90;99.90
3055;DHT22;1537;52.018;8.542;2023-05-29T00:15:46;11.90;99.90
3055;DHT22;1537;52.018;8.542;2023-05-29T00:19:14;11.80;99.90
3055;DHT22;1537;52.018;8.542;2023-05-29T00:22:39;11.80;99.90
3055;DHT22;1537;52.018;8.542;2023-05-29T00:26:03;11.70;99.90
3055;DHT22;1537;52.018;8.542;2023-05-29T00:29:27;11.70;99.90
3055;DHT22;1537;52.018;8.542;2023-05-29T00:32:51;11.60;99.90
3055;DHT22;1537;52.018;8.542;2023-05-29T00:36:18;11.60;99.90
3055;DHT22;1537;52.018;8.542;2023-05-29T00:39:42;11.60;99.90
3055;DHT22;1537;52.018;8.542;2023-05-29T00:43:06;11.50;99.90
3055;DHT22;1537;52.018;8.542;2023-05-29T00:46:32;11.50;99.90
3055;DHT22;1537;52.018;8.542;2023-05-29T00:49:57;11.40;99.90
3055;DHT22;1537;52.018;8.542;2023-05-29T00:53:23;11.30;99.90
3055;DHT22;1537;52.018;8.542;2023-05-29T00:56:48;11.20;99.90
3055;DHT22;1537;52.018;8.542;2023-05-29T01:00:12;11.10;99.90
3055;DHT22;1537;52.018;8.542;2023-05-29T01:03:39;11.00;99.90
3055;DHT22;1537;52.018;8.542;2023-05-29T01:07:04;11.00;99.90
3055;DHT22;1537;52.018;8.542;2023-05-29T01:10:30;11.00;99.90
3055;DHT22;1537;52.018;8.542;2023-05-29T01:13:57;10.90;99.90
3055;DHT22;1537;52.018;8.542;2023-05-29T01:17:26;10.80;99.90
3055;DHT22;1537;52.018;8.542;2023-05-29T01:20:56;10.90;99.90
3055;DHT22;1537;52.018;8.542;2023-05-29T01:24:28;10.80;99.90
3055;DHT22;1537;52.018;8.542;2023-05-29T01:27:58;10.70;99.90
3055;DHT22;1537;52.018;8.542;2023-05-29T01:31:26;10.70;99.90
3055;DHT22;1537;52.018;8.542;2023-05-29T01:34:53;10.70;99.90
3055;DHT22;1537;52.018;8.542;2023-05-29T01:38:17;10.60;99.90
3055;DHT22;1537;52.018;8.542;2023-05-29T01:41:45;10.50;99.90
3055;DHT22;1537;52.018;8.542;2023-05-29T01:45:14;10.60;99.90
3055;DHT22;1537;52.018;8.542;2023-05-29T01:48:43;10.60;99.90
3055;DHT22;1537;52.018;8.542;2023-05-29T01:52:08;10.60;99.90
3055;DHT22;1537;52.018;8.542;2023-05-29T01:55:33;10.50;99.90
3055;DHT22;1537;52.018;8.542;2023-05-29T01:58:58;10.50;99.90
3055;DHT22;1537;52.018;8.542;2023-05-29T02:02:23;10.50;99.90
3055;DHT22;1537;52.018;8.542;2023-05-29T02:05:47;10.50;99.90
3055;DHT22;1537;52.018;8.542;2023-05-29T02:09:11;10.50;99.90
3055;DHT22;1537;52.018;8.542;2023-05-29T02:12:35;10.40;99.90
3055;DHT22;1537;52.018;8.542;2023-05-29T02:15:59;10.40;99.90
3055;DHT22;1537;52.018;8.542;2023-05-29T02:19:25;10.30;99.90
3055;DHT22;1537;52.018;8.542;2023-05-29T02:22:50;10.30;99.90
3055;DHT22;1537;52.018;8.542;2023-05-29T02:26:14;10.40;99.90
3055;DHT22;1537;52.018;8.542;2023-05-29T02:29:39;10.30;99.90
3055;DHT22;1537;52.018;8.542;2023-05-29T02:33:03;10.30;99.90
3055;DHT22;1537;52.018;8.542;2023-05-29T02:36:33;10.20;99.90
3055;DHT22;1537;52.018;8.542;2023-05-29T02:39:58;10.20;99.90
3055;DHT22;1537;52.018;8.542;2023-05-29T02:43:22;10.20;99.90
3055;DHT22;1537;52.018;8.542;2023-05-29T02:46:46;10.20;99.90
3055;DHT22;1537;52.018;8.542;2023-05-29T02:50:14;10.20;99.90
3055;DHT22;1537;52.018;8.542;2023-05-29T02:53:39;10.30;99.90
3055;DHT22;1537;52.018;8.542;2023-05-29T02:57:04;10.20;99.90
3055;DHT22;1537;52.018;8.542;2023-05-29T03:00:28;10.10;99.90
3055;DHT22;1537;52.018;8.542;2023-05-29T03:03:53;10.10;99.90
3055;DHT22;1537;52.018;8.542;2023-05-29T03:07:19;10.10;99.90
3055;DHT22;1537;52.018;8.542;2023-05-29T03:10:44;10.00;99.90
3055;DHT22;1537;52.018;8.542;2023-05-29T03:14:10;10.00;99.90
3055;DHT22;1537;52.018;8.542;2023-05-29T03:17:34;9.90;99.90
3055;DHT22;1537;52.018;8.542;2023-05-29T03:21:05;9.90;99.90
3055;DHT22;1537;52.018;8.542;2023-05-29T03:24:29;9.90;99.90
3055;DHT22;1537;52.018;8.542;2023-05-29T03:27:54;9.80;99.90
3055;DHT22;1537;52.018;8.542;2023-05-29T03:31:19;9.80;99.90
3055;DHT22;1537;52.018;8.542;2023-05-29T03:34:43;9.80;99.90
3055;DHT22;1537;52.018;8.542;2023-05-29T03:38:07;9.90;99.90
3055;DHT22;1537;52.018;8.542;2023-05-29T03:41:32;9.90;99.90
3055;DHT22;1537;52.018;8.542;2023-05-29T03:44:58;9.90;99.90
3055;DHT22;1537;52.018;8.542;2023-05-29T03:48:24;10.00;99.90
3055;DHT22;1537;52.018;8.542;2023-05-29T03:51:49;10.10;99.90
3055;DHT22;1537;52.018;8.542;2023-05-29T03:55:14;10.20;99.90
3055;DHT22;1537;52.018;8.542;2023-05-29T03:58:40;10.20;99.90
3055;DHT22;1537;52.018;8.542;2023-05-29T04:02:07;10.30;99.90
3055;DHT22;1537;52.018;8.542;2023-05-29T04:05:32;10.30;99.90
3055;DHT22;1537;52.018;8.542;2023-05-29T04:08:56;10.20;99.90
3055;DHT22;1537;52.018;8.542;2023-05-29T04:12:20;10.10;99.90
3055;DHT22;1537;52.018;8.542;2023-05-29T04:15:44;10.10;99.90
3055;DHT22;1537;52.018;8.542;2023-05-29T04:19:09;10.20;99.90
3055;DHT22;1537;52.018;8.542;2023-05-29T04:22:35;10.10;99.90
3055;DHT22;1537;52.018;8.542;2023-05-29T04:25:59;10.10;99.90
3055;DHT22;1537;52.018;8.542;2023-05-29T04:29:26;10.10;99.90
3055;DHT22;1537;52.018;8.542;2023-05-29T04:32:51;10.10;99.90
3055;DHT22;1537;52.018;8.542;2023-05-29T04:36:22;10.30;99.90
3055;DHT22;1537;52.018;8.542;2023-05-29T04:40:03;10.20;99.90
3055;DHT22;1537;52.018;8.542;2023-05-29T04:43:31;10.10;99.90
3055;DHT22;1537;52.018;8.542;2023-05-29T04:47:01;10.20;99.90
3055;DHT22;1537;52.018;8.542;2023-05-29T04:50:26;10.20;99.90
3055;DHT22;1537;52.018;8.542;2023-05-29T04:53:55;10.20;99.90
3055;DHT22;1537;52.018;8.542;2023-05-29T04:57:19;10.40;99.90
3055;DHT22;1537;52.018;8.542;2023-05-29T05:00:44;10.40;99.90
3055;DHT22;1537;52.018;8.542;2023-05-29T05:04:10;10.50;99.90
3055;DHT22;1537;52.018;8.542;2023-05-29T05:07:34;10.60;99.90
3055;DHT22;1537;52.018;8.542;2023-05-29T05:11:00;10.80;99.90
3055;DHT22;1537;52.018;8.542;2023-05-29T05:14:24;11.40;99.90
3055;DHT22;1537;52.018;8.542;2023-05-29T05:17:53;12.10;99.90
3055;DHT22;1537;52.018;8.542;2023-05-29T05:21:18;12.60;99.90
3055;DHT22;1537;52.018;8.542;2023-05-29T05:24:42;12.90;99.90
3055;DHT22;1537;52.018;8.542;2023-05-29T05:28:08;12.80;99.90
3055;DHT22;1537;52.018;8.542;2023-05-29T05:31:32;13.10;99.90
3055;DHT22;1537;52.018;8.542;2023-05-29T05:34:56;13.10;99.90
3055;DHT22;1537;52.018;8.542;2023-05-29T05:38:23;13.10;99.90
3055;DHT22;1537;52.018;8.542;2023-05-29T05:41:47;13.40;99.90
3055;DHT22;1537;52.018;8.542;2023-05-29T05:45:27;13.80;99.90
3055;DHT22;1537;52.018;8.542;2023-05-29T05:48:51;14.10;99.90
3055;DHT22;1537;52.018;8.542;2023-05-29T05:52:19;14.30;99.90
3055;DHT22;1537;52.018;8.542;2023-05-29T05:55:48;14.10;99.90
3055;DHT22;1537;52.018;8.542;2023-05-29T05:59:16;14.20;99.90
3055;DHT22;1537;52.018;8.542;2023-05-29T06:02:42;14.50;99.90
3055;DHT22;1537;52.018;8.542;2023-05-29T06:06:19;14.20;99.90
3055;DHT22;1537;52.018;8.542;2023-05-29T06:09:44;14.40;99.90
3055;DHT22;1537;52.018;8.542;2023-05-29T06:13:11;14.90;99.90
3055;DHT22;1537;52.018;8.542;2023-05-29T06:16:46;15.60;99.90
3055;DHT22;1537;52.018;8.542;2023-05-29T06:20:13;15.70;99.90
3055;DHT22;1537;52.018;8.542;2023-05-29T06:23:44;16.10;99.90
3055;DHT22;1537;52.018;8.542;2023-05-29T06:27:10;16.00;99.90
3055;DHT22;1537;52.018;8.542;2023-05-29T06:30:35;16.00;99.90
3055;DHT22;1537;52.018;8.542;2023-05-29T06:34:03;16.30;99.90
3055;DHT22;1537;52.018;8.542;2023-05-29T06:37:29;16.40;99.70
3055;DHT22;1537;52.018;8.542;2023-05-29T06:40:53;16.40;99.90
3055;DHT22;1537;52.018;8.542;2023-05-29T06:44:18;16.80;99.40
3055;DHT22;1537;52.018;8.542;2023-05-29T06:47:43;16.60;98.90
3055;DHT22;1537;52.018;8.542;2023-05-29T06:51:06;16.40;98.70
3055;DHT22;1537;52.018;8.542;2023-05-29T06:54:51;16.50;98.20
3055;DHT22;1537;52.018;8.542;2023-05-29T06:58:16;16.80;98.20
3055;DHT22;1537;52.018;8.542;2023-05-29T07:01:40;17.10;97.10
3055;DHT22;1537;52.018;8.542;2023-05-29T07:05:06;17.00;96.60
3055;DHT22;1537;52.018;8.542;2023-05-29T07:08:31;17.20;96.70
3055;DHT22;1537;52.018;8.542;2023-05-29T07:11:56;17.30;95.30
3055;DHT22;1537;52.018;8.542;2023-05-29T07:15:22;17.30;95.20
3055;DHT22;1537;52.018;8.542;2023-05-29T07:18:46;17.20;95.30
3055;DHT22;1537;52.018;8.542;2023-05-29T07:22:10;17.70;94.30
3055;DHT22;1537;52.018;8.542;2023-05-29T07:25:35;18.20;93.80
3055;DHT22;1537;52.018;8.542;2023-05-29T07:29:00;18.80;92.70
3055;DHT22;1537;52.018;8.542;2023-05-29T07:32:27;19.00;91.60
3055;DHT22;1537;52.018;8.542;2023-05-29T07:35:51;19.20;91.20
3055;DHT22;1537;52.018;8.542;2023-05-29T07:39:14;19.80;90.40
3055;DHT22;1537;52.018;8.542;2023-05-29T07:42:38;20.10;87.30
3055;DHT22;1537;52.018;8.542;2023-05-29T07:46:03;19.80;87.10
3055;DHT22;1537;52.018;8.542;2023-05-29T07:49:29;19.60;86.80
3055;DHT22;1537;52.018;8.542;2023-05-29T07:52:53;18.90;86.70
3055;DHT22;1537;52.018;8.542;2023-05-29T07:56:19;18.80;88.00
3055;DHT22;1537;52.018;8.542;2023-05-29T07:59:44;19.30;85.60
3055;DHT22;1537;52.018;8.542;2023-05-29T08:03:13;20.00;84.50
3055;DHT22;1537;52.018;8.542;2023-05-29T08:06:56;20.30;83.40
3055;DHT22;1537;52.018;8.542;2023-05-29T08:10:20;20.10;81.20
3055;DHT22;1537;52.018;8.542;2023-05-29T08:13:43;20.80;80.90
3055;DHT22;1537;52.018;8.542;2023-05-29T08:17:08;21.40;77.30
3055;DHT22;1537;52.018;8.542;2023-05-29T08:20:33;20.60;77.10
3055;DHT22;1537;52.018;8.542;2023-05-29T08:23:57;20.20;79.00
3055;DHT22;1537;52.018;8.542;2023-05-29T08:27:21;20.10;79.70
3055;DHT22;1537;52.018;8.542;2023-05-29T08:30:45;20.90;77.80
3055;DHT22;1537;52.018;8.542;2023-05-29T08:34:08;20.80;77.70
3055;DHT22;1537;52.018;8.542;2023-05-29T08:37:34;20.80;76.70
3055;DHT22;1537;52.018;8.542;2023-05-29T08:40:57;20.20;77.80
3055;DHT22;1537;52.018;8.542;2023-05-29T08:44:22;19.70;76.90
3055;DHT22;1537;52.018;8.542;2023-05-29T08:47:49;19.50;79.00
3055;DHT22;1537;52.018;8.542;2023-05-29T08:51:16;19.30;80.00
3055;DHT22;1537;52.018;8.542;2023-05-29T08:54:43;19.40;79.30
3055;DHT22;1537;52.018;8.542;2023-05-29T08:58:07;19.20;78.70
3055;DHT22;1537;52.018;8.542;2023-05-29T09:01:33;19.30;79.30
3055;DHT22;1537;52.018;8.542;2023-05-29T09:04:59;19.60;78.70
3055;DHT22;1537;52.018;8.542;2023-05-29T09:08:22;19.60;77.90
3055;DHT22;1537;52.018;8.542;2023-05-29T09:11:47;19.60;78.30
3055;DHT22;1537;52.018;8.542;2023-05-29T09:15:17;20.20;76.70
3055;DHT22;1537;52.018;8.542;2023-05-29T09:18:41;19.90;77.10
3055;DHT22;1537;52.018;8.542;2023-05-29T09:22:09;20.70;77.60
3055;DHT22;1537;52.018;8.542;2023-05-29T09:25:37;20.80;75.80
3055;DHT22;1537;52.018;8.542;2023-05-29T09:29:04;20.60;74.30
3055;DHT22;1537;52.018;8.542;2023-05-29T09:32:32;19.50;76.70
3055;DHT22;1537;52.018;8.542;2023-05-29T09:35:56;19.70;77.80
3055;DHT22;1537;52.018;8.542;2023-05-29T09:39:21;20.90;75.50
3055;DHT22;1537;52.018;8.542;2023-05-29T09:42:44;20.20;75.60
3055;DHT22;1537;52.018;8.542;2023-05-29T09:46:15;20.40;77.30
3055;DHT22;1537;52.018;8.542;2023-05-29T09:49:41;20.60;74.50
3055;DHT22;1537;52.018;8.542;2023-05-29T09:53:16;21.40;73.90
3055;DHT22;1537;52.018;8.542;2023-05-29T09:56:42;21.60;73.40
3055;DHT22;1537;52.018;8.542;2023-05-29T10:00:08;21.30;73.50
3055;DHT22;1537;52.018;8.542;2023-05-29T10:03:37;21.00;72.10
3055;DHT22;1537;52.018;8.542;2023-05-29T10:07:06;21.00;73.00
3055;DHT22;1537;52.018;8.542;2023-05-29T10:10:32;21.90;71.60
3055;DHT22;1537;52.018;8.542;2023-05-29T10:13:58;21.60;71.30
3055;DHT22;1537;52.018;8.542;2023-05-29T10:17:26;22.00;70.40
3055;DHT22;1537;52.018;8.542;2023-05-29T10:20:54;23.30;68.20
3055;DHT22;1537;52.018;8.542;2023-05-29T10:24:21;23.10;67.10
3055;DHT22;1537;52.018;8.542;2023-05-29T10:27:45;22.30;66.80
3055;DHT22;1537;52.018;8.542;2023-05-29T10:31:13;23.10;66.40
3055;DHT22;1537;52.018;8.542;2023-05-29T10:34:42;23.00;65.60
3055;DHT22;1537;52.018;8.542;2023-05-29T10:38:12;23.00;65.70
3055;DHT22;1537;52.018;8.542;2023-05-29T10:41:38;22.90;65.30
3055;DHT22;1537;52.018;8.542;2023-05-29T10:45:03;22.00;66.00
3055;DHT22;1537;52.018;8.542;2023-05-29T10:48:39;21.90;67.30
3055;DHT22;1537;52.018;8.542;2023-05-29T10:52:04;21.70;66.90
3055;DHT22;1537;52.018;8.542;2023-05-29T10:55:35;22.00;66.90
3055;DHT22;1537;52.018;8.542;2023-05-29T10:59:00;21.80;67.30
3055;DHT22;1537;52.018;8.542;2023-05-29T11:02:24;20.70;68.60
3055;DHT22;1537;52.018;8.542;2023-05-29T11:05:58;21.00;68.70
3055;DHT22;1537;52.018;8.542;2023-05-29T11:09:28;21.10;70.50
3055;DHT22;1537;52.018;8.542;2023-05-29T11:12:59;21.00;71.00
3055;DHT22;1537;52.018;8.542;2023-05-29T11:16:37;20.60;72.10
3055;DHT22;1537;52.018;8.542;2023-05-29T11:20:02;19.70;73.20
3055;DHT22;1537;52.018;8.542;2023-05-29T11:23:31;19.60;75.30
3055;DHT22;1537;52.018;8.542;2023-05-29T11:26:56;19.80;74.20
3055;DHT22;1537;52.018;8.542;2023-05-29T11:30:28;19.40;74.10
3055;DHT22;1537;52.018;8.542;2023-05-29T11:33:54;19.30;75.90
3055;DHT22;1537;52.018;8.542;2023-05-29T11:37:19;19.70;75.80
3055;DHT22;1537;52.018;8.542;2023-05-29T11:40:44;19.50;75.70
3055;DHT22;1537;52.018;8.542;2023-05-29T11:44:07;19.60;75.90
3055;DHT22;1537;52.018;8.542;2023-05-29T11:47:50;19.60;76.10
3055;DHT22;1537;52.018;8.542;2023-05-29T11:51:14;19.20;75.40
3055;DHT22;1537;52.018;8.542;2023-05-29T11:54:38;19.10;76.70
3055;DHT22;1537;52.018;8.542;2023-05-29T11:58:04;19.00;76.70
3055;DHT22;1537;52.018;8.542;2023-05-29T12:01:28;19.10;76.10
3055;DHT22;1537;52.018;8.542;2023-05-29T12:05:01;18.90;76.70
3055;DHT22;1537;52.018;8.542;2023-05-29T12:08:26;19.10;77.30
3055;DHT22;1537;52.018;8.542;2023-05-29T12:11:50;18.70;77.60
3055;DHT22;1537;52.018;8.542;2023-05-29T12:15:14;18.60;77.40
3055;DHT22;1537;52.018;8.542;2023-05-29T12:18:38;18.60;77.70
3055;DHT22;1537;52.018;8.542;2023-05-29T12:22:03;18.90;77.30
3055;DHT22;1537;52.018;8.542;2023-05-29T12:25:28;18.90;77.40
3055;DHT22;1537;52.018;8.542;2023-05-29T12:28:52;19.10;77.30
3055;DHT22;1537;52.018;8.542;2023-05-29T12:32:16;18.90;77.20
3055;DHT22;1537;52.018;8.542;2023-05-29T12:35:46;18.90;78.50
3055;DHT22;1537;52.018;8.542;2023-05-29T12:39:11;19.20;80.10
3055;DHT22;1537;52.018;8.542;2023-05-29T12:42:37;19.60;79.40
3055;DHT22;1537;52.018;8.542;2023-05-29T12:46:01;19.40;78.70
3055;DHT22;1537;52.018;8.542;2023-05-29T12:49:25;19.20;78.40
3055;DHT22;1537;52.018;8.542;2023-05-29T12:52:58;19.20;80.60
3055;DHT22;1537;52.018;8.542;2023-05-29T12:56:24;18.80;79.90
3055;DHT22;1537;52.018;8.542;2023-05-29T12:59:48;18.80;79.60
3055;DHT22;1537;52.018;8.542;2023-05-29T13:03:12;18.70;81.10
3055;DHT22;1537;52.018;8.542;2023-05-29T13:06:38;18.80;81.30
3055;DHT22;1537;52.018;8.542;2023-05-29T13:10:01;19.10;80.40
3055;DHT22;1537;52.018;8.542;2023-05-29T13:13:26;18.90;79.60
3055;DHT22;1537;52.018;8.542;2023-05-29T13:16:50;18.90;79.70
3055;DHT22;1537;52.018;8.542;2023-05-29T13:20:14;19.20;81.40
3055;DHT22;1537;52.018;8.542;2023-05-29T13:23:38;19.20;79.30
3055;DHT22;1537;52.018;8.542;2023-05-29T13:27:02;19.10;80.10
3055;DHT22;1537;52.018;8.542;2023-05-29T13:30:27;19.10;80.00
3055;DHT22;1537;52.018;8.542;2023-05-29T13:33:51;18.80;80.30
3055;DHT22;1537;52.018;8.542;2023-05-29T13:37:14;18.90;80.60
3055;DHT22;1537;52.018;8.542;2023-05-29T13:40:38;19.10;80.10
3055;DHT22;1537;52.018;8.542;2023-05-29T13:44:02;19.30;78.10
3055;DHT22;1537;52.018;8.542;2023-05-29T13:47:31;19.10;78.80
3055;DHT22;1537;52.018;8.542;2023-05-29T13:50:57;19.10;79.00
3055;DHT22;1537;52.018;8.542;2023-05-29T13:54:20;19.40;76.90
3055;DHT22;1537;52.018;8.542;2023-05-29T13:57:44;19.40;74.60
3055;DHT22;1537;52.018;8.542;2023-05-29T14:01:09;19.20;76.10
3055;DHT22;1537;52.018;8.542;2023-05-29T14:04:34;19.30;74.90
3055;DHT22;1537;52.018;8.542;2023-05-29T14:07:58;19.30;74.20
3055;DHT22;1537;52.018;8.542;2023-05-29T14:11:22;19.30;73.90
3055;DHT22;1537;52.018;8.542;2023-05-29T14:14:46;19.50;73.00
3055;DHT22;1537;52.018;8.542;2023-05-29T14:18:11;19.60;70.00
3055;DHT22;1537;52.018;8.542;2023-05-29T14:21:36;19.30;69.30
3055;DHT22;1537;52.018;8.542;2023-05-29T14:25:01;19.30;69.10
3055;DHT22;1537;52.018;8.542;2023-05-29T14:28:26;19.50;65.70
3055;DHT22;1537;52.018;8.542;2023-05-29T14:31:50;19.70;64.40
3055;DHT22;1537;52.018;8.542;2023-05-29T14:35:14;19.60;60.70
3055;DHT22;1537;52.018;8.542;2023-05-29T14:38:39;19.30;60.20
3055;DHT22;1537;52.018;8.542;2023-05-29T14:42:04;19.20;59.00
3055;DHT22;1537;52.018;8.542;2023-05-29T14:45:28;19.10;58.40
3055;DHT22;1537;52.018;8.542;2023-05-29T14:48:52;18.90;59.70
3055;DHT22;1537;52.018;8.542;2023-05-29T14:52:16;19.10;59.80
3055;DHT22;1537;52.018;8.542;2023-05-29T14:55:41;19.10;59.60
3055;DHT22;1537;52.018;8.542;2023-05-29T14:59:05;19.20;60.00
3055;DHT22;1537;52.018;8.542;2023-05-29T15:02:28;19.40;57.70
3055;DHT22;1537;52.018;8.542;2023-05-29T15:05:52;19.40;58.20
3055;DHT22;1537;52.018;8.542;2023-05-29T15:09:16;19.20;57.10
3055;DHT22;1537;52.018;8.542;2023-05-29T15:12:41;19.10;56.70
3055;DHT22;1537;52.018;8.542;2023-05-29T15:16:05;19.20;56.90
3055;DHT22;1537;52.018;8.542;2023-05-29T15:19:29;19.10;55.30
3055;DHT22;1537;52.018;8.542;2023-05-29T15:22:53;19.20;56.50
3055;DHT22;1537;52.018;8.542;2023-05-29T15:26:17;19.20;56.00
3055;DHT22;1537;52.018;8.542;2023-05-29T15:29:42;19.30;55.60
3055;DHT22;1537;52.018;8.542;2023-05-29T15:33:06;19.20;53.90
3055;DHT22;1537;52.018;8.542;2023-05-29T15:36:31;19.30;55.00
3055;DHT22;1537;52.018;8.542;2023-05-29T15:39:55;19.30;55.60
3055;DHT22;1537;52.018;8.542;2023-05-29T15:43:20;19.10;56.40
3055;DHT22;1537;52.018;8.542;2023-05-29T15:46:45;19.00;57.20
3055;DHT22;1537;52.018;8.542;2023-05-29T15:50:10;19.00;57.10
3055;DHT22;1537;52.018;8.542;2023-05-29T15:53:33;19.00;56.50
3055;DHT22;1537;52.018;8.542;2023-05-29T15:56:57;19.10;57.10
3055;DHT22;1537;52.018;8.542;2023-05-29T16:00:22;19.10;57.30
3055;DHT22;1537;52.018;8.542;2023-05-29T16:03:48;19.10;57.40
3055;DHT22;1537;52.018;8.542;2023-05-29T16:07:12;19.10;57.10
3055;DHT22;1537;52.018;8.542;2023-05-29T16:10:35;19.10;57.40
3055;DHT22;1537;52.018;8.542;2023-05-29T16:14:00;19.00;56.80
3055;DHT22;1537;52.018;8.542;2023-05-29T16:17:24;19.00;57.00
3055;DHT22;1537;52.018;8.542;2023-05-29T16:20:50;19.00;57.40
3055;DHT22;1537;52.018;8.542;2023-05-29T16:24:13;19.00;57.80
3055;DHT22;1537;52.018;8.542;2023-05-29T16:27:37;18.80;61.30
3055;DHT22;1537;52.018;8.542;2023-05-29T16:31:01;18.70;61.70
3055;DHT22;1537;52.018;8.542;2023-05-29T16:34:25;18.70;62.40
3055;DHT22;1537;52.018;8.542;2023-05-29T16:37:50;18.70;61.40
3055;DHT22;1537;52.018;8.542;2023-05-29T16:41:14;18.70;62.10
3055;DHT22;1537;52.018;8.542;2023-05-29T16:44:38;18.70;62.10
3055;DHT22;1537;52.018;8.542;2023-05-29T16:48:02;18.70;61.60
3055;DHT22;1537;52.018;8.542;2023-05-29T16:51:26;18.70;61.50
3055;DHT22;1537;52.018;8.542;2023-05-29T16:54:51;18.50;61.40
3055;DHT22;1537;52.018;8.542;2023-05-29T16:58:20;18.30;62.50
3055;DHT22;1537;52.018;8.542;2023-05-29T17:01:44;18.30;63.70
3055;DHT22;1537;52.018;8.542;2023-05-29T17:05:08;18.20;65.80
3055;DHT22;1537;52.018;8.542;2023-05-29T17:08:32;18.20;66.40
3055;DHT22;1537;52.018;8.542;2023-05-29T17:11:57;18.30;66.40
3055;DHT22;1537;52.018;8.542;2023-05-29T17:15:21;18.40;61.80
3055;DHT22;1537;52.018;8.542;2023-05-29T17:18:46;18.40;62.10
3055;DHT22;1537;52.018;8.542;2023-05-29T17:22:11;18.40;61.80
3055;DHT22;1537;52.018;8.542;2023-05-29T17:25:38;18.30;61.90
3055;DHT22;1537;52.018;8.542;2023-05-29T17:29:10;18.20;61.40
3055;DHT22;1537;52.018;8.542;2023-05-29T17:32:44;18.00;63.60
3055;DHT22;1537;52.018;8.542;2023-05-29T17:36:17;18.00;65.30
3055;DHT22;1537;52.018;8.542;2023-05-29T17:39:44;17.90;66.50
3055;DHT22;1537;52.018;8.542;2023-05-29T17:43:13;17.80;66.40
3055;DHT22;1537;52.018;8.542;2023-05-29T17:46:41;17.70;66.00
3055;DHT22;1537;52.018;8.542;2023-05-29T17:50:08;17.60;63.60
3055;DHT22;1537;52.018;8.542;2023-05-29T17:53:33;17.50;63.50
3055;DHT22;1537;52.018;8.542;2023-05-29T17:56:57;17.50;63.10
3055;DHT22;1537;52.018;8.542;2023-05-29T18:00:24;17.40;63.10
3055;DHT22;1537;52.018;8.542;2023-05-29T18:03:52;17.30;63.50
3055;DHT22;1537;52.018;8.542;2023-05-29T18:07:17;17.20;63.70
3055;DHT22;1537;52.018;8.542;2023-05-29T18:10:50;17.00;64.70
3055;DHT22;1537;52.018;8.542;2023-05-29T18:14:21;16.90;64.50
3055;DHT22;1537;52.018;8.542;2023-05-29T18:17:53;16.90;64.80
3055;DHT22;1537;52.018;8.542;2023-05-29T18:21:25;16.80;65.80
3055;DHT22;1537;52.018;8.542;2023-05-29T18:24:55;16.60;65.50
3055;DHT22;1537;52.018;8.542;2023-05-29T18:28:37;16.50;65.90
3055;DHT22;1537;52.018;8.542;2023-05-29T18:32:03;16.30;65.90
3055;DHT22;1537;52.018;8.542;2023-05-29T18:35:28;16.30;65.90
3055;DHT22;1537;52.018;8.542;2023-05-29T18:39:10;16.30;66.30
3055;DHT22;1537;52.018;8.542;2023-05-29T18:42:36;16.20;64.40
3055;DHT22;1537;52.018;8.542;2023-05-29T18:46:03;16.00;63.70
3055;DHT22;1537;52.018;8.542;2023-05-29T18:49:36;15.90;64.70
3055;DHT22;1537;52.018;8.542;2023-05-29T18:53:04;15.80;64.60
3055;DHT22;1537;52.018;8.542;2023-05-29T18:56:42;15.70;64.70
3055;DHT22;1537;52.018;8.542;2023-05-29T19:00:07;15.60;63.90
3055;DHT22;1537;52.018;8.542;2023-05-29T19:03:39;15.50;63.90
3055;DHT22;1537;52.018;8.542;2023-05-29T19:07:07;15.50;64.30
3055;DHT22;1537;52.018;8.542;2023-05-29T19:10:37;15.40;63.30
3055;DHT22;1537;52.018;8.542;2023-05-29T19:14:07;15.20;63.30
3055;DHT22;1537;52.018;8.542;2023-05-29T19:17:31;15.10;63.60
3055;DHT22;1537;52.018;8.542;2023-05-29T19:20:55;15.10;63.50
3055;DHT22;1537;52.018;8.542;2023-05-29T19:24:21;15.00;63.80
3055;DHT22;1537;52.018;8.542;2023-05-29T19:27:45;14.90;64.30
3055;DHT22;1537;52.018;8.542;2023-05-29T19:31:11;14.90;64.80
3055;DHT22;1537;52.018;8.542;2023-05-29T19:34:38;14.80;65.30
3055;DHT22;1537;52.018;8.542;2023-05-29T19:38:06;14.70;65.50
3055;DHT22;1537;52.018;8.542;2023-05-29T19:41:37;14.50;66.20
3055;DHT22;1537;52.018;8.542;2023-05-29T19:45:08;14.50;66.50
3055;DHT22;1537;52.018;8.542;2023-05-29T19:48:36;14.50;66.50
3055;DHT22;1537;52.018;8.542;2023-05-29T19:52:04;14.40;65.80
3055;DHT22;1537;52.018;8.542;2023-05-29T19:55:41;14.30;65.80
3055;DHT22;1537;52.018;8.542;2023-05-29T19:59:05;14.20;66.10
3055;DHT22;1537;52.018;8.542;2023-05-29T20:02:33;14.00;66.30
3055;DHT22;1537;52.018;8.542;2023-05-29T20:06:07;13.90;67.10
3055;DHT22;1537;52.018;8.542;2023-05-29T20:09:34;13.80;68.30
3055;DHT22;1537;52.018;8.542;2023-05-29T20:13:01;13.70;69.70
3055;DHT22;1537;52.018;8.542;2023-05-29T20:16:29;13.60;71.90
3055;DHT22;1537;52.018;8.542;2023-05-29T20:20:03;13.50;73.30
3055;DHT22;1537;52.018;8.542;2023-05-29T20:23:34;13.40;75.10
3055;DHT22;1537;52.018;8.542;2023-05-29T20:26:57;13.30;77.00
3055;DHT22;1537;52.018;8.542;2023-05-29T20:30:21;13.30;78.10
3055;DHT22;1537;52.018;8.542;2023-05-29T20:33:54;13.20;80.10
3055;DHT22;1537;52.018;8.542;2023-05-29T20:37:20;13.10;80.90
3055;DHT22;1537;52.018;8.542;2023-05-29T20:40:49;13.00;81.50
3055;DHT22;1537;52.018;8.542;2023-05-29T20:44:18;12.90;82.50
3055;DHT22;1537;52.018;8.542;2023-05-29T20:47:43;12.70;83.20
3055;DHT22;1537;52.018;8.542;2023-05-29T20:51:10;12.60;85.00
3055;DHT22;1537;52.018;8.542;2023-05-29T20:54:38;12.50;84.10
3055;DHT22;1537;52.018;8.542;2023-05-29T20:58:04;12.40;84.40
3055;DHT22;1537;52.018;8.542;2023-05-29T21:01:28;12.40;84.80
3055;DHT22;1537;52.018;8.542;2023-05-29T21:04:57;12.20;85.60
3055;DHT22;1537;52.018;8.542;2023-05-29T21:08:27;12.20;87.00
3055;DHT22;1537;52.018;8.542;2023-05-29T21:11:52;12.10;88.40
3055;DHT22;1537;52.018;8.542;2023-05-29T21:15:22;12.00;90.00
3055;DHT22;1537;52.018;8.542;2023-05-29T21:18:47;12.00;90.50
3055;DHT22;1537;52.018;8.542;2023-05-29T21:22:21;11.80;91.30
3055;DHT22;1537;52.018;8.542;2023-05-29T21:25:49;11.80;91.40
3055;DHT22;1537;52.018;8.542;2023-05-29T21:29:15;11.80;91.80
3055;DHT22;1537;52.018;8.542;2023-05-29T21:32:43;11.80;92.10
3055;DHT22;1537;52.018;8.542;2023-05-29T21:36:11;11.60;92.70
3055;DHT22;1537;52.018;8.542;2023-05-29T21:39:36;11.60;93.20
3055;DHT22;1537;52.018;8.542;2023-05-29T21:43:04;11.50;93.60
3055;DHT22;1537;52.018;8.542;2023-05-29T21:46:29;11.40;94.10
3055;DHT22;1537;52.018;8.542;2023-05-29T21:50:03;11.40;94.50
3055;DHT22;1537;52.018;8.542;2023-05-29T21:53:40;11.30;95.00
3055;DHT22;1537;52.018;8.542;2023-05-29T21:57:13;11.20;95.50
3055;DHT22;1537;52.018;8.542;2023-05-29T22:00:39;11.20;96.10
3055;DHT22;1537;52.018;8.542;2023-05-29T22:04:07;11.20;96.40
3055;DHT22;1537;52.018;8.542;2023-05-29T22:07:38;11.10;97.10
3055;DHT22;1537;52.018;8.542;2023-05-29T22:11:06;11.00;97.80
3055;DHT22;1537;52.018;8.542;2023-05-29T22:14:33;11.00;98.30
3055;DHT22;1537;52.018;8.542;2023-05-29T22:17:59;10.90;99.20
3055;DHT22;1537;52.018;8.542;2023-05-29T22:21:25;10.90;99.90
3055;DHT22;1537;52.018;8.542;2023-05-29T22:24:54;10.80;99.90
3055;DHT22;1537;52.018;8.542;2023-05-29T22:28:18;10.80;99.90